createdAt,value
2023-01-21T00:00:27.212Z,69.30
2023-01-21T00:02:57.758Z,69.20
2023-01-21T00:05:26.743Z,69.30
2023-01-21T00:07:55.831Z,69.20
2023-01-21T00:10:25.081Z,69.20
2023-01-21T00:12:54.055Z,69.30
2023-01-21T00:15:23.104Z,69.30
2023-01-21T00:17:53.996Z,69.30
2023-01-21T00:20:24.507Z,69.30
2023-01-21T00:22:55.130Z,69.30
2023-01-21T00:25:24.088Z,69.00
2023-01-21T00:27:53.072Z,68.70
2023-01-21T00:30:22.114Z,68.60
2023-01-21T00:32:51.548Z,68.40
2023-01-21T00:35:20.583Z,68.40
2023-01-21T00:37:52.190Z,68.60
2023-01-21T00:40:21.124Z,68.60
2023-01-21T00:42:50.183Z,68.70
2023-01-21T00:45:19.432Z,68.60
2023-01-21T00:47:48.529Z,68.60
2023-01-21T00:50:18.504Z,68.70
2023-01-21T00:52:47.619Z,68.80
2023-01-21T00:55:18.125Z,68.70
2023-01-21T00:57:47.358Z,68.70
2023-01-21T01:00:17.308Z,68.80
2023-01-21T01:02:46.767Z,68.80
2023-01-21T01:05:17.209Z,68.70
2023-01-21T01:07:47.606Z,68.90
2023-01-21T01:10:18.541Z,68.70
2023-01-21T01:12:47.545Z,68.70
2023-01-21T01:15:16.658Z,68.60
2023-01-21T01:17:47.936Z,68.60
2023-01-21T01:20:17.440Z,68.60
2023-01-21T01:22:46.586Z,68.50
2023-01-21T01:25:17.356Z,68.40
2023-01-21T01:27:46.510Z,68.40
2023-01-21T01:30:15.929Z,68.20
2023-01-21T01:32:45.177Z,68.30
2023-01-21T01:35:14.531Z,68.40
2023-01-21T01:37:43.536Z,68.20
2023-01-21T01:40:13.672Z,68.10
2023-01-21T01:42:44.195Z,68.10
2023-01-21T01:45:20.220Z,68.10
2023-01-21T01:47:58.286Z,68.30
2023-01-21T01:50:32.238Z,68.40
2023-01-21T01:53:03.188Z,68.50
2023-01-21T01:55:36.074Z,68.40
2023-01-21T01:58:10.902Z,68.50
2023-01-21T02:00:40.290Z,68.60
2023-01-21T02:03:26.752Z,68.40
2023-01-21T02:05:57.128Z,68.40
2023-01-21T02:08:27.915Z,68.40
2023-01-21T02:10:56.989Z,68.50
2023-01-21T02:13:29.544Z,68.40
2023-01-21T02:16:09.361Z,68.60
2023-01-21T02:18:48.575Z,68.60
2023-01-21T02:21:49.443Z,68.60
2023-01-21T02:24:52.196Z,68.50
2023-01-21T02:27:50.497Z,68.40
2023-01-21T02:30:58.470Z,68.30
2023-01-21T02:33:53.565Z,68.40
2023-01-21T02:36:33.538Z,68.50
2023-01-21T02:39:11.738Z,68.50
2023-01-21T02:41:55.836Z,68.50
2023-01-21T02:44:33.409Z,68.60
2023-01-21T02:47:08.221Z,68.60
2023-01-21T02:49:41.804Z,68.70
2023-01-21T02:52:18.963Z,68.90
2023-01-21T02:54:54.224Z,68.90
2023-01-21T02:57:36.726Z,68.90
2023-01-21T03:00:09.771Z,68.90
2023-01-21T03:03:04.426Z,69.10
2023-01-21T03:05:49.632Z,69.10
2023-01-21T03:08:22.912Z,69.20
2023-01-21T03:10:56.655Z,69.10
2023-01-21T03:13:50.066Z,69.10
2023-01-21T03:16:40.732Z,69.20
2023-01-21T03:19:13.938Z,69.20
2023-01-21T03:21:44.945Z,69.20
2023-01-21T03:24:16.721Z,69.20
2023-01-21T03:26:50.787Z,69.10
2023-01-21T03:29:24.479Z,69.20
2023-01-21T03:31:57.851Z,69.10
2023-01-21T03:34:29.218Z,69.10
2023-01-21T03:37:05.598Z,69.00
2023-01-21T03:39:41.804Z,69.00
2023-01-21T03:42:11.585Z,69.10
2023-01-21T03:44:41.341Z,69.10
2023-01-21T03:47:20.743Z,69.00
2023-01-21T03:49:53.432Z,68.90
2023-01-21T03:52:26.170Z,68.90
2023-01-21T03:54:55.500Z,68.80
2023-01-21T03:57:24.688Z,68.70
2023-01-21T03:59:54.432Z,68.70
2023-01-21T04:02:23.693Z,68.70
2023-01-21T04:04:53.271Z,68.60
2023-01-21T04:07:23.728Z,68.70
2023-01-21T04:09:52.721Z,68.70
2023-01-21T04:12:21.547Z,68.80
2023-01-21T04:14:50.359Z,68.80
2023-01-21T04:17:19.357Z,68.90
2023-01-21T04:19:48.131Z,68.80
2023-01-21T04:22:16.978Z,68.70
2023-01-21T04:24:47.457Z,68.60
2023-01-21T04:27:16.396Z,68.80
2023-01-21T04:29:45.321Z,68.80
2023-01-21T04:32:14.248Z,68.90
2023-01-21T04:34:43.169Z,68.80
2023-01-21T04:37:12.252Z,68.70
2023-01-21T04:39:41.109Z,68.70
2023-01-21T04:42:11.417Z,68.70
2023-01-21T04:44:40.490Z,68.80
2023-01-21T04:47:09.438Z,68.80
2023-01-21T04:49:38.369Z,68.90
2023-01-21T04:52:07.622Z,68.90
2023-01-21T04:54:36.687Z,68.80
2023-01-21T04:57:05.892Z,68.90
2023-01-21T04:59:36.629Z,68.90
2023-01-21T05:02:05.665Z,68.80
2023-01-21T05:04:34.717Z,68.80
2023-01-21T05:07:03.614Z,68.80
2023-01-21T05:09:32.564Z,69.00
2023-01-21T05:12:01.454Z,68.90
2023-01-21T05:14:30.447Z,68.80
2023-01-21T05:17:01.128Z,68.70
2023-01-21T05:19:30.032Z,68.70
2023-01-21T05:21:59.092Z,68.60
2023-01-21T05:24:27.980Z,68.60
2023-01-21T05:26:56.935Z,68.60
2023-01-21T05:29:25.910Z,68.60
2023-01-21T05:31:54.944Z,68.60
2023-01-21T05:34:25.320Z,68.60
2023-01-21T05:36:54.242Z,68.60
2023-01-21T05:39:23.562Z,68.50
2023-01-21T05:41:52.547Z,68.20
2023-01-21T05:44:21.658Z,68.00
2023-01-21T05:46:50.952Z,67.90
2023-01-21T05:49:20.866Z,67.80
2023-01-21T05:51:51.098Z,67.70
2023-01-21T05:54:20.331Z,67.60
2023-01-21T05:56:49.243Z,67.60
2023-01-21T05:59:18.300Z,67.50
2023-01-21T06:01:47.488Z,67.30
2023-01-21T06:04:16.482Z,67.20
2023-01-21T06:06:45.583Z,67.20
2023-01-21T06:09:16.107Z,67.10
2023-01-21T06:11:45.218Z,66.90
2023-01-21T06:14:14.338Z,67.10
2023-01-21T06:16:43.370Z,66.70
2023-01-21T06:19:12.440Z,66.60
2023-01-21T06:21:44.010Z,66.60
2023-01-21T06:24:12.948Z,66.60
2023-01-21T06:26:43.588Z,66.60
2023-01-21T06:29:12.637Z,66.50
2023-01-21T06:31:41.673Z,66.90
2023-01-21T06:34:12.505Z,66.80
2023-01-21T06:36:42.713Z,66.80
2023-01-21T06:39:12.314Z,66.90
2023-01-21T06:41:41.394Z,67.10
2023-01-21T06:44:11.921Z,67.20
2023-01-21T06:46:43.458Z,67.20
2023-01-21T06:49:14.842Z,66.90
2023-01-21T06:51:44.130Z,66.90
2023-01-21T06:54:13.258Z,66.60
2023-01-21T06:56:43.635Z,66.10
2023-01-21T06:59:13.821Z,65.70
2023-01-21T07:01:42.947Z,65.40
2023-01-21T07:04:12.170Z,65.20
2023-01-21T07:06:41.384Z,65.00
2023-01-21T07:09:11.174Z,65.20
2023-01-21T07:11:40.166Z,65.20
2023-01-21T07:14:09.500Z,65.00
2023-01-21T07:16:39.946Z,64.90
2023-01-21T07:19:08.953Z,65.10
2023-01-21T07:21:41.245Z,65.20
2023-01-21T07:24:10.516Z,65.40
2023-01-21T07:26:39.654Z,65.50
2023-01-21T07:29:10.188Z,65.60
2023-01-21T07:31:40.831Z,65.70
2023-01-21T07:34:09.845Z,65.50
2023-01-21T07:36:38.735Z,65.90
2023-01-21T07:39:07.957Z,66.10
2023-01-21T07:41:37.052Z,66.20
2023-01-21T07:44:08.370Z,65.90
2023-01-21T07:46:37.601Z,65.80
2023-01-21T07:49:08.105Z,65.80
2023-01-21T07:51:37.251Z,65.60
2023-01-21T07:54:06.320Z,65.80
2023-01-21T07:56:35.636Z,66.10
2023-01-21T07:59:04.809Z,66.00
2023-01-21T08:01:34.015Z,65.70
2023-01-21T08:04:03.133Z,65.90
2023-01-21T08:06:33.524Z,65.70
2023-01-21T08:09:02.660Z,65.70
2023-01-21T08:11:32.024Z,65.70
2023-01-21T08:14:01.035Z,65.50
2023-01-21T08:16:30.102Z,65.70
2023-01-21T08:18:59.702Z,66.50
2023-01-21T08:21:29.060Z,66.50
2023-01-21T08:24:00.005Z,65.70
2023-01-21T08:26:29.163Z,65.50
2023-01-21T08:28:58.407Z,65.50
2023-01-21T08:31:27.350Z,65.40
2023-01-21T08:33:57.808Z,65.40
2023-01-21T08:36:27.097Z,65.50
2023-01-21T08:38:58.532Z,65.50
2023-01-21T08:41:29.151Z,65.80
2023-01-21T08:43:58.399Z,66.30
2023-01-21T08:46:27.665Z,66.00
2023-01-21T08:48:56.773Z,66.40
2023-01-21T08:51:28.298Z,65.30
2023-01-21T08:53:57.779Z,65.30
2023-01-21T08:56:28.584Z,65.30
2023-01-21T08:58:57.986Z,65.20
2023-01-21T09:01:28.066Z,65.40
2023-01-21T09:03:57.338Z,65.20
2023-01-21T09:06:27.288Z,65.20
2023-01-21T09:08:56.779Z,65.10
2023-01-21T09:11:26.094Z,65.20
2023-01-21T09:13:59.263Z,65.00
2023-01-21T09:16:28.674Z,64.80
2023-01-21T09:18:57.909Z,64.70
2023-01-21T09:21:27.571Z,64.60
2023-01-21T09:23:57.074Z,64.40
2023-01-21T09:26:26.690Z,64.50
2023-01-21T09:28:58.783Z,64.50
2023-01-21T09:31:29.638Z,64.40
2023-01-21T09:34:00.690Z,64.50
2023-01-21T09:36:32.092Z,64.90
2023-01-21T09:39:01.857Z,64.70
2023-01-21T09:41:34.951Z,64.70
2023-01-21T09:44:16.593Z,64.90
2023-01-21T09:46:52.251Z,64.90
2023-01-21T09:49:26.207Z,65.30
2023-01-21T09:52:03.098Z,65.00
2023-01-21T09:54:34.585Z,64.70
2023-01-21T09:57:27.599Z,64.60
2023-01-21T10:00:09.335Z,64.40
2023-01-21T10:02:49.870Z,64.40
2023-01-21T10:05:42.756Z,64.30
2023-01-21T10:08:19.101Z,64.30
2023-01-21T10:10:52.333Z,63.80
2023-01-21T10:13:35.297Z,63.90
2023-01-21T10:16:12.677Z,64.70
2023-01-21T10:18:44.763Z,64.00
2023-01-21T10:21:21.962Z,63.90
2023-01-21T10:23:57.395Z,63.80
2023-01-21T10:26:28.384Z,63.80
2023-01-21T10:28:57.357Z,63.90
2023-01-21T10:31:30.081Z,64.00
2023-01-21T10:33:59.189Z,64.10
2023-01-21T10:36:47.507Z,64.60
2023-01-21T10:39:27.902Z,64.70
2023-01-21T10:42:17.364Z,64.60
2023-01-21T10:44:54.235Z,64.30
2023-01-21T10:47:34.029Z,64.30
2023-01-21T10:50:13.438Z,63.70
2023-01-21T10:52:48.241Z,63.70
2023-01-21T10:55:26.335Z,63.70
2023-01-21T10:57:59.961Z,63.70
2023-01-21T11:00:34.069Z,63.60
2023-01-21T11:03:12.912Z,63.60
2023-01-21T11:05:42.558Z,63.70
2023-01-21T11:08:18.514Z,63.70
2023-01-21T11:10:50.325Z,63.60
2023-01-21T11:13:19.682Z,63.80
2023-01-21T11:15:56.971Z,63.60
2023-01-21T11:18:34.349Z,63.50
2023-01-21T11:21:13.678Z,63.50
2023-01-21T11:23:44.032Z,63.60
2023-01-21T11:26:20.075Z,64.30
2023-01-21T11:28:49.562Z,63.40
2023-01-21T11:31:24.405Z,63.50
2023-01-21T11:33:57.238Z,63.40
2023-01-21T11:36:26.462Z,63.30
2023-01-21T11:39:03.217Z,63.40
2023-01-21T11:41:33.177Z,63.50
2023-01-21T11:44:18.648Z,63.60
2023-01-21T11:46:47.852Z,63.60
2023-01-21T11:49:30.644Z,63.80
2023-01-21T11:52:17.923Z,63.70
2023-01-21T11:54:48.147Z,63.60
2023-01-21T11:57:29.552Z,63.60
2023-01-21T12:00:08.194Z,63.80
2023-01-21T12:02:48.138Z,63.80
2023-01-21T12:05:24.560Z,63.90
2023-01-21T12:07:53.678Z,64.20
2023-01-21T12:10:30.496Z,64.30
2023-01-21T12:13:22.417Z,64.30
2023-01-21T12:16:06.234Z,64.50
2023-01-21T12:18:51.675Z,65.10
2023-01-21T12:21:32.708Z,65.00
2023-01-21T12:24:13.849Z,64.80
2023-01-21T12:26:46.613Z,64.80
2023-01-21T12:29:34.311Z,64.60
2023-01-21T12:32:07.635Z,64.40
2023-01-21T12:34:41.368Z,64.30
2023-01-21T12:37:17.456Z,64.40
2023-01-21T12:39:50.387Z,64.30
2023-01-21T12:42:24.725Z,64.30
2023-01-21T12:44:57.786Z,64.40
2023-01-21T12:47:33.878Z,64.40
2023-01-21T12:50:17.935Z,64.40
2023-01-21T12:53:00.232Z,64.50
2023-01-21T12:55:38.015Z,64.40
2023-01-21T12:58:12.822Z,64.40
2023-01-21T13:00:47.092Z,64.80
2023-01-21T13:03:25.235Z,64.60
2023-01-21T13:05:58.479Z,64.50
2023-01-21T13:08:55.847Z,64.60
2023-01-21T13:11:30.868Z,65.00
2023-01-21T13:14:18.971Z,65.00
2023-01-21T13:16:53.697Z,65.20
2023-01-21T13:19:22.798Z,65.10
2023-01-21T13:21:56.335Z,65.10
2023-01-21T13:24:33.827Z,65.20
2023-01-21T13:27:12.989Z,65.00
2023-01-21T13:29:48.275Z,64.80
2023-01-21T13:32:31.207Z,64.90
2023-01-21T13:35:15.671Z,64.80
2023-01-21T13:37:51.356Z,64.70
2023-01-21T13:40:34.108Z,64.80
2023-01-21T13:43:16.533Z,64.90
2023-01-21T13:45:57.318Z,65.00
2023-01-21T13:48:52.114Z,65.10
2023-01-21T13:51:39.862Z,65.00
2023-01-21T13:54:28.661Z,64.80
2023-01-21T13:57:16.959Z,64.80
2023-01-21T13:59:53.008Z,64.70
2023-01-21T14:02:28.788Z,64.70
2023-01-21T14:05:02.510Z,64.50
2023-01-21T14:07:36.612Z,64.40
2023-01-21T14:10:13.940Z,64.50
2023-01-21T14:13:05.443Z,64.30
2023-01-21T14:15:47.778Z,64.50
2023-01-21T14:18:46.442Z,64.40
2023-01-21T14:21:38.128Z,64.30
2023-01-21T14:24:19.471Z,64.50
2023-01-21T14:27:07.927Z,64.50
2023-01-21T14:29:45.180Z,64.50
2023-01-21T14:32:17.654Z,64.50
2023-01-21T14:34:56.207Z,64.50
2023-01-21T14:37:30.635Z,64.30
2023-01-21T14:40:11.088Z,64.10
2023-01-21T14:42:45.598Z,63.90
2023-01-21T14:45:19.629Z,63.90
2023-01-21T14:47:51.973Z,64.00
2023-01-21T14:50:45.961Z,64.00
2023-01-21T14:53:21.004Z,64.10
2023-01-21T14:56:09.561Z,64.20
2023-01-21T14:58:39.527Z,64.20
2023-01-21T15:01:27.469Z,64.20
2023-01-21T15:03:57.609Z,64.20
2023-01-21T15:06:27.688Z,64.10
2023-01-21T15:09:00.462Z,64.10
2023-01-21T15:11:35.168Z,64.10
2023-01-21T15:14:13.151Z,64.20
2023-01-21T15:16:45.569Z,64.20
2023-01-21T15:19:32.393Z,64.30
2023-01-21T15:22:30.049Z,64.40
2023-01-21T15:25:19.352Z,64.40
2023-01-21T15:28:27.758Z,64.20
2023-01-21T15:31:01.838Z,64.30
2023-01-21T15:33:36.892Z,64.10
2023-01-21T15:36:13.074Z,64.10
2023-01-21T15:38:43.587Z,64.20
2023-01-21T15:41:26.303Z,64.30
2023-01-21T15:44:07.375Z,64.40
2023-01-21T15:46:46.001Z,64.40
2023-01-21T15:49:37.323Z,64.30
2023-01-21T15:52:23.718Z,64.10
2023-01-21T15:55:01.155Z,64.30
2023-01-21T15:57:44.274Z,65.20
2023-01-21T16:00:32.017Z,64.40
2023-01-21T16:03:12.469Z,64.90
2023-01-21T16:05:54.137Z,64.50
2023-01-21T16:08:31.744Z,64.50
2023-01-21T16:11:17.003Z,64.50
2023-01-21T16:13:55.449Z,64.50
2023-01-21T16:16:45.142Z,64.60
2023-01-21T16:19:16.259Z,64.70
2023-01-21T16:21:50.039Z,64.80
2023-01-21T16:24:24.711Z,64.80
2023-01-21T16:26:54.039Z,65.00
2023-01-21T16:29:23.297Z,64.80
2023-01-21T16:31:59.131Z,64.70
2023-01-21T16:34:41.670Z,64.80
2023-01-21T16:37:14.900Z,64.80
2023-01-21T16:39:44.994Z,64.80
2023-01-21T16:42:27.493Z,64.70
2023-01-21T16:44:56.954Z,64.80
2023-01-21T16:47:28.572Z,64.70
2023-01-21T16:49:58.953Z,64.80
2023-01-21T16:52:30.427Z,64.70
2023-01-21T16:54:59.558Z,64.80
2023-01-21T16:57:32.099Z,65.00
2023-01-21T17:00:02.694Z,65.00
2023-01-21T17:02:34.639Z,64.90
2023-01-21T17:05:06.272Z,65.00
2023-01-21T17:07:42.943Z,65.20
2023-01-21T17:10:20.675Z,65.20
2023-01-21T17:12:53.899Z,65.30
2023-01-21T17:15:29.317Z,65.30
2023-01-21T17:18:01.500Z,65.40
2023-01-21T17:20:37.248Z,65.50
2023-01-21T17:23:13.916Z,65.80
2023-01-21T17:25:43.680Z,66.00
2023-01-21T17:28:24.833Z,66.10
2023-01-21T17:31:10.453Z,66.30
2023-01-21T17:33:39.564Z,66.50
2023-01-21T17:36:13.273Z,66.40
2023-01-21T17:38:45.614Z,66.70
2023-01-21T17:41:24.797Z,66.70
2023-01-21T17:43:57.039Z,67.50
2023-01-21T17:46:26.452Z,67.40
2023-01-21T17:48:58.817Z,67.30
2023-01-21T17:51:30.395Z,67.30
2023-01-21T17:54:03.644Z,67.40
2023-01-21T17:56:38.543Z,67.40
2023-01-21T17:59:31.497Z,67.40
2023-01-21T18:02:01.136Z,67.50
2023-01-21T18:04:30.625Z,67.50
2023-01-21T18:06:59.840Z,67.60
2023-01-21T18:09:31.868Z,67.60
2023-01-21T18:12:01.186Z,67.70
2023-01-21T18:14:30.170Z,67.70
2023-01-21T18:16:59.246Z,67.80
2023-01-21T18:19:31.061Z,68.00
2023-01-21T18:22:01.575Z,68.30
2023-01-21T18:24:32.314Z,68.30
2023-01-21T18:27:03.000Z,68.50
2023-01-21T18:29:32.553Z,68.50
2023-01-21T18:32:01.844Z,68.60
2023-01-21T18:34:31.108Z,68.70
2023-01-21T18:37:00.630Z,68.90
2023-01-21T18:39:31.384Z,69.00
2023-01-21T18:42:01.295Z,69.10
2023-01-21T18:44:30.572Z,69.10
2023-01-21T18:46:59.747Z,69.20
2023-01-21T18:49:29.359Z,69.10
2023-01-21T18:51:58.297Z,69.20
2023-01-21T18:54:27.443Z,69.20
2023-01-21T18:56:58.316Z,69.20
2023-01-21T18:59:28.414Z,69.30
2023-01-21T19:01:57.542Z,69.40
2023-01-21T19:04:27.382Z,69.40
2023-01-21T19:06:56.684Z,69.40
2023-01-21T19:09:27.096Z,69.50
2023-01-21T19:11:57.714Z,69.60
2023-01-21T19:14:27.015Z,69.60
2023-01-21T19:16:56.681Z,69.60
2023-01-21T19:19:26.712Z,69.70
2023-01-21T19:21:56.201Z,69.70
2023-01-21T19:24:25.440Z,69.70
2023-01-21T19:27:01.060Z,69.90
2023-01-21T19:29:31.624Z,69.80
2023-01-21T19:32:00.773Z,69.70
2023-01-21T19:34:30.015Z,69.90
2023-01-21T19:36:59.041Z,69.90
2023-01-21T19:39:32.828Z,69.90
2023-01-21T19:42:11.492Z,70.00
2023-01-21T19:44:42.244Z,70.00
2023-01-21T19:47:19.512Z,70.10
2023-01-21T19:49:48.828Z,70.20
2023-01-21T19:52:18.066Z,70.20
2023-01-21T19:54:47.462Z,70.20
2023-01-21T19:57:17.473Z,70.20
2023-01-21T19:59:50.669Z,70.20
2023-01-21T20:02:20.224Z,70.30
2023-01-21T20:04:49.539Z,70.20
2023-01-21T20:07:19.029Z,70.30
2023-01-21T20:09:48.837Z,70.30
2023-01-21T20:12:18.159Z,70.20
2023-01-21T20:14:48.480Z,70.30
2023-01-21T20:17:17.673Z,70.20
2023-01-21T20:19:47.772Z,70.30
2023-01-21T20:22:16.711Z,70.40
2023-01-21T20:24:45.788Z,70.20
2023-01-21T20:27:15.759Z,70.30
2023-01-21T20:29:55.584Z,70.60
2023-01-21T20:32:32.758Z,70.70
2023-01-21T20:35:03.453Z,70.50
2023-01-21T20:37:33.174Z,70.40
2023-01-21T20:40:03.134Z,70.50
2023-01-21T20:42:32.347Z,70.70
2023-01-21T20:45:01.351Z,70.60
2023-01-21T20:47:38.137Z,70.60
2023-01-21T20:50:19.496Z,70.80
2023-01-21T20:52:49.760Z,70.70
2023-01-21T20:55:21.337Z,70.50
2023-01-21T20:57:50.565Z,70.60
2023-01-21T21:00:23.468Z,70.50
2023-01-21T21:02:55.390Z,70.70
2023-01-21T21:05:27.900Z,70.60
2023-01-21T21:07:57.102Z,70.80
2023-01-21T21:10:29.361Z,70.70
2023-01-21T21:12:59.545Z,70.80
2023-01-21T21:15:29.781Z,70.70
2023-01-21T21:17:59.621Z,70.80
2023-01-21T21:20:32.711Z,70.80
2023-01-21T21:23:02.327Z,71.00
2023-01-21T21:25:33.780Z,70.90
2023-01-21T21:28:03.013Z,71.10
2023-01-21T21:30:34.246Z,71.30
2023-01-21T21:33:04.560Z,71.20
2023-01-21T21:35:36.944Z,71.00
2023-01-21T21:38:09.472Z,71.10
2023-01-21T21:40:38.674Z,71.10
2023-01-21T21:43:26.179Z,71.10
2023-01-21T21:46:13.496Z,71.20
2023-01-21T21:48:43.445Z,71.30
2023-01-21T21:51:15.421Z,71.20
2023-01-21T21:53:45.428Z,71.30
2023-01-21T21:56:16.848Z,71.30
2023-01-21T21:58:46.491Z,71.30
2023-01-21T22:01:18.255Z,71.30
2023-01-21T22:03:47.966Z,71.30
2023-01-21T22:06:20.493Z,71.30
2023-01-21T22:08:50.569Z,71.40
2023-01-21T22:11:21.211Z,71.30
2023-01-21T22:13:52.186Z,71.40
2023-01-21T22:16:23.914Z,71.40
2023-01-21T22:18:53.961Z,71.40
2023-01-21T22:21:26.960Z,71.40
2023-01-21T22:23:56.797Z,71.40
2023-01-21T22:26:28.147Z,71.30
2023-01-21T22:28:57.752Z,71.40
2023-01-21T22:31:28.799Z,71.40
2023-01-21T22:33:59.017Z,71.50
2023-01-21T22:36:31.220Z,71.60
2023-01-21T22:39:00.541Z,71.60
2023-01-21T22:41:29.846Z,71.60
2023-01-21T22:43:58.886Z,71.60
2023-01-21T22:46:30.588Z,71.70
2023-01-21T22:48:59.902Z,71.70
2023-01-21T22:51:31.167Z,71.60
2023-01-21T22:54:02.234Z,71.60
2023-01-21T22:56:50.406Z,71.60
2023-01-21T22:59:20.645Z,71.50
2023-01-21T23:01:51.223Z,71.60
2023-01-21T23:04:20.166Z,71.60
2023-01-21T23:06:54.827Z,71.80
2023-01-21T23:09:24.297Z,71.60
2023-01-21T23:11:53.879Z,71.60
2023-01-21T23:14:23.011Z,71.60
2023-01-21T23:16:53.681Z,71.50
2023-01-21T23:19:23.060Z,71.70
2023-01-21T23:21:54.107Z,71.60
2023-01-21T23:24:24.133Z,71.50
2023-01-21T23:26:53.254Z,71.60
2023-01-21T23:29:22.686Z,71.70
2023-01-21T23:31:52.472Z,71.70
2023-01-21T23:34:22.895Z,71.70
2023-01-21T23:36:53.437Z,71.80
2023-01-21T23:39:22.730Z,71.70
2023-01-21T23:41:51.799Z,71.80
2023-01-21T23:44:20.820Z,71.70
2023-01-21T23:46:49.936Z,71.60
2023-01-21T23:49:19.236Z,71.70
2023-01-21T23:51:48.492Z,71.80
2023-01-21T23:54:19.151Z,71.90
2023-01-21T23:56:48.156Z,71.90
2023-01-21T23:59:17.445Z,71.90
